CDT,Max TemperatureF,Mean TemperatureF,Min TemperatureF,Max Dew PointF,MeanDew PointF,Min DewpointF,Max Humidity, Mean Humidity, Min Humidity, Max Sea Level PressureIn, Mean Sea Level PressureIn, Min Sea Level PressureIn, Max VisibilityMiles, Mean VisibilityMiles, Min VisibilityMiles, Max Wind SpeedMPH, Mean Wind SpeedMPH, Max Gust SpeedMPH,PrecipitationIn, CloudCover, Events, WindDirDegrees
2013-9-1,82,68,55,55,50,43,84,52,27,30.15,30.10,30.02,10,10,5,10,5,17,0.00,0,,344
2013-9-2,88,71,54,58,53,50,89,58,27,30.15,30.10,30.03,10,10,10,14,4,18,0.00,0,,166
2013-9-3,92,76,61,57,54,48,77,47,25,30.07,30.03,29.98,10,10,10,24,11,30,0.00,0,,175
2013-9-4,93,79,65,63,57,54,73,49,26,30.13,30.08,30.01,10,10,10,21,12,25,0.00,0,Thunderstorm,159
2013-9-5,95,80,64,61,58,52,83,54,23,30.14,30.10,30.05,10,10,10,17,5,23,0.00,0,,154
2013-9-6,102,84,66,64,55,46,63,41,15,30.07,29.99,29.91,10,10,10,13,8,,0.00,0,,203
2013-9-7,96,82,68,68,61,54,85,50,25,30.05,30.00,29.96,10,10,10,15,7,20,0.00,0,,94
2013-9-8,100,84,68,69,61,43,92,59,14,30.02,29.91,29.79,10,7,0,16,7,22,0.00,3,Fog,147
2013-9-9,88,77,66,63,55,48,71,46,30,29.98,29.86,29.79,10,10,10,17,10,22,0.00,1,Rain-Thunderstorm,322
2013-9-10,79,69,60,62,59,56,92,72,48,30.17,30.07,29.98,10,10,5,12,5,,0.03,3,Rain-Thunderstorm,348
2013-9-11,82,70,58,62,55,48,92,65,30,30.25,30.20,30.16,10,10,7,7,1,,0.00,2,,95
2013-9-12,81,69,57,61,50,44,94,59,27,30.33,30.28,30.24,10,9,0,16,4,21,0.00,0,Fog,89
2013-9-13,74,61,49,50,47,43,88,59,35,30.27,30.17,30.04,10,10,10,20,7,23,0.00,5,,162
2013-9-14,79,70,61,61,54,46,77,59,48,30.04,29.93,29.86,10,10,10,23,15,33,0.00,4,,189
2013-9-15,68,64,57,62,54,51,90,74,56,30.32,30.17,29.93,10,10,5,21,11,25,0.00,7,Thunderstorm,31
2013-9-16,61,58,55,53,50,47,91,74,67,30.32,30.25,30.13,10,10,4,16,9,20,0.00,8,,144
2013-9-17,81,68,55,62,58,52,89,74,47,30.13,29.93,29.80,10,9,4,17,12,22,0.00,5,,175
2013-9-18,93,78,62,63,58,51,89,59,23,29.80,29.73,29.67,10,10,10,36,8,50,0.00,0,Rain,195
2013-9-19,68,60,48,56,48,39,90,67,34,30.17,29.99,29.78,10,10,5,28,12,36,0.21,2,Rain-Thunderstorm,340
2013-9-20,74,56,39,44,40,36,91,61,27,30.18,30.11,30.02,10,10,7,13,4,18,0.01,0,,290
2013-9-21,85,64,43,52,45,39,90,55,20,30.04,29.89,29.77,10,10,10,21,6,28,0.00,0,,190
2013-9-22,85,71,57,53,50,47,80,50,30,29.78,29.70,29.61,10,10,10,29,13,37,0.00,0,,167
2013-9-23,72,64,57,54,49,46,82,59,39,29.88,29.67,29.59,10,10,10,24,16,31,0.00,3,Rain,153
2013-9-24,75,62,49,51,43,33,91,57,22,30.04,29.97,29.88,10,10,7,15,10,24,0.00,1,,354
2013-9-25,79,64,48,52,48,43,92,59,30,29.95,29.75,29.57,10,10,10,29,12,41,0.00,0,,148
2013-9-26,81,66,52,55,51,46,82,56,35,29.73,29.67,29.54,10,10,10,23,13,32,0.00,0,,47
2013-9-27,60,54,46,50,45,42,91,75,60,29.89,29.79,29.70,10,10,2,20,8,28,0.51,5,Rain-Thunderstorm,359
2013-9-28,67,54,41,43,36,28,89,59,23,30.04,29.99,29.89,10,10,10,20,12,26,0.00,2,Rain,281
2013-9-29,82,62,43,42,35,24,79,43,12,30.04,29.91,29.78,10,10,10,23,8,33,0.00,0,,210
2013-9-30,88,72,57,45,36,27,60,31,11,29.81,29.75,29.67,10,10,10,24,13,32,0.00,0,,232